Time;durP1;ratioP1;P1;durP2;ratioP2;P2;SDS_P1;SDS_P2;PMS_P1;PMS_P2;Temp;Humidity;BMP_temperature;BMP_pressure;BME280_temperature;BME280_humidity;BME280_pressure;Samples;Min_cycle;Max_cycle;Signal;HPM_P1;HPM_P2
2020/12/24 00:00:59;;;;;;;5.87;2.80;;;;;;;9.43;86.27;99200.50;5118594;28;20477;-69
2020/12/24 00:03:25;;;;;;;3.13;2.20;;;;;;;9.51;85.25;99187.22;5124217;28;20461;-69
2020/12/24 00:05:52;;;;;;;6.23;2.70;;;;;;;9.47;85.19;99180.50;5126073;28;21033;-70
2020/12/24 00:08:19;;;;;;;4.90;2.60;;;;;;;9.43;85.19;99196.00;5126262;28;20482;-70
2020/12/24 00:10:45;;;;;;;4.93;2.67;;;;;;;9.38;85.09;99192.97;5124610;28;20533;-69
2020/12/24 00:13:12;;;;;;;4.93;2.07;;;;;;;9.32;85.38;99204.28;5126333;28;20511;-70
2020/12/24 00:15:38;;;;;;;3.70;1.97;;;;;;;9.26;84.80;99199.56;5125293;28;20523;-70
2020/12/24 00:18:04;;;;;;;3.60;1.67;;;;;;;9.30;85.20;99200.09;5127486;28;20438;-70
2020/12/24 00:20:30;;;;;;;3.80;2.47;;;;;;;9.30;83.89;99184.91;5125702;28;21002;-70
2020/12/24 00:22:57;;;;;;;5.07;1.83;;;;;;;9.32;83.10;99206.09;5126375;28;20446;-70
2020/12/24 00:25:23;;;;;;;5.50;1.90;;;;;;;9.32;83.07;99185.59;5125753;28;20484;-70
2020/12/24 00:27:49;;;;;;;5.03;2.93;;;;;;;9.32;82.83;99190.94;5127841;28;20964;-69
2020/12/24 00:30:16;;;;;;;3.30;1.50;;;;;;;9.35;82.10;99187.09;5125171;28;20435;-70
2020/12/24 00:32:43;;;;;;;4.60;1.97;;;;;;;9.29;82.02;99182.41;5127586;28;20453;-70
2020/12/24 00:35:09;;;;;;;4.90;1.90;;;;;;;9.20;82.08;99170.84;5125190;28;20518;-70
2020/12/24 00:37:35;;;;;;;4.43;2.03;;;;;;;9.09;81.92;99174.63;5126254;28;20969;-69
2020/12/24 00:40:01;;;;;;;5.40;1.83;;;;;;;9.07;81.10;99178.47;5126906;28;20434;-69
2020/12/24 00:42:28;;;;;;;10.03;2.10;;;;;;;8.96;81.55;99188.38;5125251;28;20474;-69
2020/12/24 00:44:54;;;;;;;5.40;1.53;;;;;;;8.99;80.94;99189.88;5126342;28;20492;-69
2020/12/24 00:47:21;;;;;;;3.00;1.50;;;;;;;9.01;80.55;99191.44;5126069;28;20516;-70
2020/12/24 00:49:47;;;;;;;4.63;1.67;;;;;;;8.98;80.62;99191.72;5126480;28;20493;-70
2020/12/24 00:52:13;;;;;;;6.07;1.87;;;;;;;8.98;80.28;99191.72;5124899;28;20512;-70
2020/12/24 00:54:39;;;;;;;2.87;1.70;;;;;;;8.91;80.03;99193.34;5125762;28;20502;-69
2020/12/24 00:57:05;;;;;;;3.80;1.93;;;;;;;8.91;80.52;99201.34;5125196;28;20470;-70
2020/12/24 00:59:31;;;;;;;6.20;1.73;;;;;;;8.89;79.89;99191.81;5126087;28;20435;-70
2020/12/24 01:01:58;;;;;;;9.33;1.97;;;;;;;8.81;79.37;99190.78;5125503;28;20486;-69
2020/12/24 01:04:25;;;;;;;4.40;1.80;;;;;;;8.79;78.11;99183.94;5126721;28;20446;-70
2020/12/24 01:06:51;;;;;;;3.87;1.90;;;;;;;8.77;77.94;99186.75;5124387;28;20470;-70
2020/12/24 01:09:17;;;;;;;7.53;2.33;;;;;;;8.73;77.54;99193.41;5126764;28;20466;-70
2020/12/24 01:11:43;;;;;;;4.13;1.57;;;;;;;8.74;77.73;99189.72;5123928;28;21315;-70
2020/12/24 01:14:09;;;;;;;7.87;1.67;;;;;;;8.74;77.46;99184.41;5125809;28;20931;-70
2020/12/24 01:16:35;;;;;;;6.00;2.90;;;;;;;8.75;77.56;99182.56;5124516;28;20489;-70
2020/12/24 01:19:01;;;;;;;4.73;1.70;;;;;;;8.75;77.67;99190.56;5126604;28;20430;-70
2020/12/24 01:21:29;;;;;;;4.63;1.23;;;;;;;8.73;77.06;99184.53;5124010;28;20497;-69
2020/12/24 01:23:55;;;;;;;7.87;1.97;;;;;;;8.73;77.52;99190.72;5126690;28;20443;-70
2020/12/24 01:26:21;;;;;;;6.17;1.47;;;;;;;8.73;77.89;99185.41;5123498;28;20514;-70
2020/12/24 01:28:47;;;;;;;4.13;1.50;;;;;;;8.82;76.53;99191.63;5126449;28;20466;-70
2020/12/24 01:31:13;;;;;;;7.93;1.30;;;;;;;8.76;76.93;99186.91;5123759;28;20474;-70
2020/12/24 01:33:40;;;;;;;6.97;1.90;;;;;;;8.76;77.26;99194.91;5126170;28;20497;-69
2020/12/24 01:36:06;;;;;;;8.53;2.13;;;;;;;8.76;77.07;99193.06;5123453;28;20485;-69
2020/12/24 01:38:33;;;;;;;5.57;1.53;;;;;;;8.79;77.00;99194.59;5125648;28;20450;-70
2020/12/24 01:41:00;;;;;;;5.50;1.30;;;;;;;8.79;77.75;99199.94;5124097;28;20474;-70
2020/12/24 01:43:27;;;;;;;4.87;1.80;;;;;;;8.71;78.14;99190.03;5126165;28;20441;-70
2020/12/24 01:45:53;;;;;;;4.70;1.60;;;;;;;8.65;78.13;99190.66;5123400;28;20500;-70
2020/12/24 01:48:20;;;;;;;4.23;1.87;;;;;;;8.61;78.73;99198.13;5125745;28;20437;-70
2020/12/24 01:50:46;;;;;;;4.47;1.50;;;;;;;8.60;78.83;99183.13;5123387;28;20487;-70
2020/12/24 01:53:18;;;;;;;7.17;2.87;;;;;;;8.59;78.83;99173.47;5125668;28;20513;-69
2020/12/24 01:55:46;;;;;;;5.73;1.83;;;;;;;8.59;78.80;99189.47;5122786;28;20838;-69
2020/12/24 01:58:12;;;;;;;8.30;1.90;;;;;;;8.52;79.55;99193.69;5126281;28;20422;-70
2020/12/24 02:00:39;;;;;;;5.47;2.30;;;;;;;8.43;79.46;99181.31;5123605;28;20519;-70
2020/12/24 02:03:05;;;;;;;9.83;2.87;;;;;;;8.37;80.13;99181.91;5125787;28;20457;-70
2020/12/24 02:05:31;;;;;;;7.10;2.13;;;;;;;8.38;79.91;99181.72;5122837;28;20491;-69
2020/12/24 02:07:58;;;;;;;7.93;1.80;;;;;;;8.39;79.31;99167.44;5124974;28;20465;-70
2020/12/24 02:10:24;;;;;;;7.70;2.07;;;;;;;8.35;78.71;99157.22;5123460;28;20503;-69
2020/12/24 02:12:51;;;;;;;8.20;1.47;;;;;;;8.22;79.81;99162.94;5124682;28;20482;-69
2020/12/24 02:15:17;;;;;;;7.03;1.90;;;;;;;8.19;79.62;99172.06;5123045;28;20641;-70
2020/12/24 02:17:43;;;;;;;5.63;1.90;;;;;;;8.16;79.43;99164.41;5125411;28;20450;-70
2020/12/24 02:20:10;;;;;;;8.03;2.43;;;;;;;8.11;79.02;99177.34;5123774;28;20438;-69
2020/12/24 02:22:37;;;;;;;8.93;2.90;;;;;;;8.18;77.88;99166.91;5125123;28;20453;-70
2020/12/24 02:25:03;;;;;;;10.83;2.53;;;;;;;8.22;77.83;99179.75;5125323;28;20434;-69
2020/12/24 02:27:29;;;;;;;8.70;1.90;;;;;;;8.24;77.38;99171.63;5124086;28;20466;-69
2020/12/24 02:29:55;;;;;;;2.97;1.53;;;;;;;8.21;77.44;99174.56;5124931;28;20446;-70
2020/12/24 02:32:21;;;;;;;9.60;2.03;;;;;;;8.23;76.61;99162.81;5123872;28;20505;-70
2020/12/24 02:34:47;;;;;;;4.00;1.43;;;;;;;8.18;77.23;99169.59;5124588;28;20470;-69
2020/12/24 02:37:14;;;;;;;3.60;1.43;;;;;;;8.22;77.09;99174.44;5122149;28;20517;-70
2020/12/24 02:39:41;;;;;;;9.87;2.50;;;;;;;8.14;76.51;99160.19;5124222;28;20446;-69
2020/12/24 02:42:07;;;;;;;7.47;1.93;;;;;;;8.09;76.86;99156.19;5122745;28;20474;-70
2020/12/24 02:44:33;;;;;;;5.30;1.60;;;;;;;8.13;75.96;99148.72;5124586;28;20953;-69
2020/12/24 02:46:59;;;;;;;5.17;1.80;;;;;;;8.07;76.21;99157.31;5124053;28;20497;-70
2020/12/24 02:49:25;;;;;;;10.00;2.27;;;;;;;8.00;77.44;99151.78;5125212;28;20458;-70
2020/12/24 02:51:52;;;;;;;12.27;4.50;;;;;;;7.92;77.77;99141.03;5121470;28;20505;-70
2020/12/24 02:54:18;;;;;;;10.07;2.30;;;;;;;7.91;77.82;99157.97;5125579;28;20470;-70
2020/12/24 02:56:45;;;;;;;5.53;1.97;;;;;;;7.91;77.33;99137.53;5122008;28;20498;-69
2020/12/24 02:59:11;;;;;;;10.57;2.10;;;;;;;7.84;77.26;99147.09;5125494;28;20452;-69
2020/12/24 03:01:37;;;;;;;5.27;1.63;;;;;;;7.84;76.99;99133.78;5123147;28;20505;-70
2020/12/24 03:04:03;;;;;;;6.97;2.30;;;;;;;7.80;77.16;99127.09;5125371;28;20438;-70
2020/12/24 03:06:29;;;;;;;5.60;2.07;;;;;;;7.71;77.45;99138.66;5122653;28;20470;-69
2020/12/24 03:08:55;;;;;;;4.13;1.60;;;;;;;7.71;77.16;99143.97;5114321;28;20482;-70
2020/12/24 03:11:21;;;;;;;4.90;2.20;;;;;;;7.68;77.20;99144.28;5102444;28;20479;-70
2020/12/24 03:13:48;;;;;;;7.23;2.03;;;;;;;7.69;76.98;99148.59;5103565;28;20592;-69
2020/12/24 03:16:15;;;;;;;7.53;2.00;;;;;;;7.71;77.16;99143.97;5102649;28;20544;-69
2020/12/24 03:18:41;;;;;;;6.30;1.83;;;;;;;7.71;77.45;99146.63;5105239;28;20431;-70
2020/12/24 03:21:07;;;;;;;5.73;2.10;;;;;;;7.75;76.77;99149.84;5103127;28;20502;-70
2020/12/24 03:23:33;;;;;;;10.00;2.40;;;;;;;7.73;77.02;99134.03;5104039;28;20701;-70
2020/12/24 03:25:59;;;;;;;7.73;1.90;;;;;;;7.76;76.50;99144.38;5102343;28;20507;-69
2020/12/24 03:28:25;;;;;;;5.10;1.90;;;;;;;7.75;76.90;99144.50;5104207;28;21019;-70
2020/12/24 03:30:52;;;;;;;7.87;1.67;;;;;;;7.80;76.55;99148.41;5103052;28;20471;-69
2020/12/24 03:33:18;;;;;;;13.87;1.93;;;;;;;7.76;77.20;99144.38;5104212;28;20515;-70
2020/12/24 03:35:45;;;;;;;9.57;2.60;;;;;;;7.77;76.80;99132.72;5101766;28;20490;-69
2020/12/24 03:38:11;;;;;;;5.67;1.60;;;;;;;7.72;77.09;99148.28;5103663;28;20482;-70
2020/12/24 03:40:38;;;;;;;9.60;2.20;;;;;;;7.65;77.19;99134.75;5103004;28;20505;-70
2020/12/24 03:43:05;;;;;;;8.63;3.00;;;;;;;7.61;77.60;99130.72;5104022;28;20447;-70
2020/12/24 03:45:31;;;;;;;6.27;1.40;;;;;;;7.59;77.44;99130.03;5102546;28;20470;-70
2020/12/24 03:47:58;;;;;;;14.53;2.43;;;;;;;7.56;77.52;99132.16;5103907;28;20485;-70
2020/12/24 03:50:24;;;;;;;13.27;2.70;;;;;;;7.59;77.51;99121.25;5105983;28;20454;-70
2020/12/24 03:52:50;;;;;;;11.77;2.40;;;;;;;7.53;77.84;99104.88;5107104;28;20455;-70
2020/12/24 03:55:16;;;;;;;8.40;2.80;;;;;;;7.57;77.54;99101.91;5105941;28;20433;-69
2020/12/24 03:57:42;;;;;;;4.83;1.80;;;;;;;7.57;77.47;99093.94;5107621;28;20462;-70
2020/12/24 04:00:08;;;;;;;9.70;2.57;;;;;;;7.57;77.36;99108.09;5106134;28;20423;-69
2020/12/24 04:02:35;;;;;;;11.27;2.40;;;;;;;7.55;77.09;99102.06;5107780;28;20485;-69
2020/12/24 04:05:02;;;;;;;5.97;1.70;;;;;;;7.58;77.42;99103.59;5107159;28;20435;-70
2020/12/24 04:07:28;;;;;;;8.03;2.27;;;;;;;7.50;77.28;99109.66;5105237;28;20479;-70
2020/12/24 04:09:54;;;;;;;11.57;2.37;;;;;;;7.57;76.97;99101.91;5126852;28;21029;-69
2020/12/24 04:12:20;;;;;;;8.23;2.07;;;;;;;7.60;76.83;99091.81;5106040;28;20556;-70
2020/12/24 04:14:46;;;;;;;4.23;2.10;;;;;;;7.59;76.98;99102.63;5124799;28;20548;-69
2020/12/24 04:17:12;;;;;;;8.37;2.00;;;;;;;7.52;78.46;99116.50;5126010;28;20520;-69
2020/12/24 04:19:38;;;;;;;13.70;4.17;;;;;;;7.41;81.19;99132.66;5111052;28;20937;-69
2020/12/24 04:22:05;;;;;;;8.03;3.00;;;;;;;7.27;82.59;99133.13;5105139;28;20512;-69
2020/12/24 04:24:31;;;;;;;7.33;2.00;;;;;;;7.09;84.02;99131.25;5107730;28;20787;-69
2020/12/24 04:26:57;;;;;;;6.80;1.90;;;;;;;7.00;85.25;99136.63;5106675;28;20475;-69
2020/12/24 04:29:24;;;;;;;9.80;2.47;;;;;;;6.93;86.25;99134.53;5127655;28;21001;-69
2020/12/24 04:31:50;;;;;;;7.70;2.30;;;;;;;6.89;86.78;99132.31;5125262;28;20501;-69
2020/12/24 04:34:16;;;;;;;15.27;4.63;;;;;;;6.87;86.06;99147.56;5107376;28;20471;-70
2020/12/24 04:36:42;;;;;;;12.43;2.90;;;;;;;6.81;85.67;99135.69;5105985;28;20514;-68
2020/12/24 04:39:09;;;;;;;7.13;2.43;;;;;;;6.69;86.10;99132.34;5107026;28;20826;-69
2020/12/24 04:41:35;;;;;;;8.20;2.60;;;;;;;6.68;87.49;99135.16;5106732;28;20544;-69
2020/12/24 04:44:02;;;;;;;7.80;2.80;;;;;;;6.60;87.19;99130.56;5106998;28;20447;-69
2020/12/24 04:46:29;;;;;;;5.90;2.57;;;;;;;6.53;87.11;99126.81;5115631;28;20470;-69
2020/12/24 04:48:57;;;;;;;7.50;2.70;;;;;;;6.47;88.01;99125.53;5126510;28;20611;-69
2020/12/24 04:51:23;;;;;;;6.43;2.87;;;;;;;6.47;88.68;99116.75;5108146;28;20479;-69
2020/12/24 04:53:49;;;;;;;6.87;2.67;;;;;;;6.49;87.59;99134.22;5106919;28;20523;-69
2020/12/24 04:56:16;;;;;;;8.03;3.40;;;;;;;6.46;87.90;99129.19;5108124;28;20497;-69
2020/12/24 04:58:43;;;;;;;8.80;3.17;;;;;;;6.43;88.59;99126.81;5107084;28;21005;-69
2020/12/24 05:01:14;;;;;;;9.73;4.10;;;;;;;6.38;88.80;99131.72;5114438;28;20473;-69
2020/12/24 05:03:40;;;;;;;6.87;3.80;;;;;;;6.39;88.70;99128.09;5122585;28;20447;-69
2020/12/24 05:06:06;;;;;;;10.87;3.77;;;;;;;6.40;89.19;99138.53;5104447;28;20466;-69
2020/12/24 05:08:33;;;;;;;14.50;5.30;;;;;;;6.39;89.03;99126.25;5112669;28;20469;-69
2020/12/24 05:11:03;;;;;;;8.70;4.27;;;;;;;6.34;89.75;99139.13;5124950;28;20473;-69
2020/12/24 05:13:31;;;;;;;10.60;5.10;;;;;;;6.37;90.06;99127.38;5125445;28;20488;-69
2020/12/24 05:15:57;;;;;;;11.27;5.57;;;;;;;6.40;89.41;99135.88;5124377;28;20462;-69
2020/12/24 05:18:23;;;;;;;10.63;4.70;;;;;;;6.36;89.40;99133.69;5126486;28;20462;-69
2020/12/24 05:20:50;;;;;;;12.87;5.50;;;;;;;6.34;89.70;99132.97;5125442;28;20486;-69
2020/12/24 05:23:18;;;;;;;10.50;5.10;;;;;;;6.34;89.97;99130.31;5126023;28;20447;-69
2020/12/24 05:25:45;;;;;;;13.03;5.77;;;;;;;6.31;89.97;99130.59;5124482;28;20481;-70
2020/12/24 05:28:20;;;;;;;14.77;5.80;;;;;;;6.30;89.33;99129.78;5126293;28;20507;-69
2020/12/24 05:30:47;;;;;;;11.03;6.10;;;;;;;6.32;89.80;99124.28;5125234;27;20465;-69
2020/12/24 05:33:26;;;;;;;12.83;4.93;;;;;;;6.28;90.33;99138.84;5126202;28;20477;-69
2020/12/24 05:35:52;;;;;;;15.83;5.37;;;;;;;6.18;90.02;99126.41;5123046;28;20474;-69
2020/12/24 05:38:31;;;;;;;10.90;5.33;;;;;;;6.27;90.62;99132.69;5125628;28;20449;-69
2020/12/24 05:40:57;;;;;;;7.33;3.20;;;;;;;6.29;89.85;99135.22;5124847;28;20858;-69
2020/12/24 05:43:23;;;;;;;8.23;3.70;;;;;;;6.32;89.87;99127.81;5125259;28;20453;-69
2020/12/24 05:46:02;;;;;;;7.60;3.60;;;;;;;6.29;90.37;99127.25;5124865;28;20494;-69
2020/12/24 05:48:33;;;;;;;11.23;3.07;;;;;;;6.24;90.12;99132.16;5123518;28;20502;-69
2020/12/24 05:50:59;;;;;;;9.90;3.90;;;;;;;6.25;89.59;99131.16;5124608;28;20493;-69
2020/12/24 05:53:25;;;;;;;10.33;4.40;;;;;;;6.18;90.74;99131.72;5125747;28;20522;-69
2020/12/24 05:55:51;;;;;;;9.63;3.93;;;;;;;6.17;90.36;99137.19;5123741;28;20474;-69
2020/12/24 05:58:18;;;;;;;12.70;3.90;;;;;;;6.21;90.63;99157.13;5125743;28;20466;-69
2020/12/24 06:00:45;;;;;;;7.20;1.90;;;;;;;5.94;87.56;99169.25;5124228;28;20462;-69
2020/12/24 06:03:17;;;;;;;4.10;1.70;;;;;;;5.64;88.35;99186.91;5125848;28;20536;-69
2020/12/24 06:05:59;;;;;;;1.67;1.50;;;;;;;5.01;87.97;99176.47;5123688;28;20465;-69
2020/12/24 06:08:26;;;;;;;4.83;2.07;;;;;;;4.70;89.17;99194.97;5120327;28;20466;-68
2020/12/24 06:11:05;;;;;;;1.47;1.37;;;;;;;4.46;88.35;99208.47;5124535;28;20533;-68
2020/12/24 06:13:36;;;;;;;1.47;1.37;;;;;;;4.28;88.00;99218.72;5123552;28;20547;-69
2020/12/24 06:16:03;;;;;;;1.40;1.10;;;;;;;4.12;88.53;99229.72;5124260;28;20591;-69
2020/12/24 06:18:32;;;;;;;1.03;0.93;;;;;;;3.99;88.42;99230.84;5108398;28;20439;-69
2020/12/24 06:21:00;;;;;;;1.20;1.10;;;;;;;3.93;88.08;99235.66;5107504;28;20478;-69
2020/12/24 06:23:27;;;;;;;0.83;0.83;;;;;;;3.89;87.57;99238.66;5125138;28;20446;-69
2020/12/24 06:25:53;;;;;;;0.80;0.80;;;;;;;3.62;87.63;99239.91;5122512;28;20486;-69
2020/12/24 06:28:20;;;;;;;0.80;0.80;;;;;;;3.54;87.48;99248.47;5125771;28;20881;-69
2020/12/24 06:30:46;;;;;;;1.00;0.80;;;;;;;3.53;87.86;99259.97;5122661;28;20476;-69
2020/12/24 06:33:12;;;;;;;1.63;0.90;;;;;;;3.49;89.01;99270.91;5104726;28;20481;-69
2020/12/24 06:35:41;;;;;;;1.17;0.97;;;;;;;3.39;88.78;99273.44;5103972;28;20467;-69
2020/12/24 06:38:09;;;;;;;1.07;0.87;;;;;;;3.27;87.96;99287.59;5122420;28;20514;-69
2020/12/24 06:40:36;;;;;;;0.80;0.80;;;;;;;3.05;87.88;99289.22;5122566;28;20461;-69
2020/12/24 06:43:02;;;;;;;0.97;0.97;;;;;;;2.85;87.88;99301.28;5123133;28;20449;-69
2020/12/24 06:45:34;;;;;;;1.20;1.10;;;;;;;2.72;87.43;99303.97;5124599;28;20473;-69
2020/12/24 06:48:22;;;;;;;1.13;1.10;;;;;;;2.68;88.34;99321.00;5106467;28;20478;-69
2020/12/24 06:50:50;;;;;;;1.23;1.13;;;;;;;2.70;88.21;99328.81;5118077;28;20483;-69
2020/12/24 06:53:23;;;;;;;1.20;1.10;;;;;;;2.69;88.05;99332.41;5124457;28;20454;-69
2020/12/24 06:56:19;;;;;;;1.47;1.23;;;;;;;2.77;88.39;99330.03;5113591;28;20490;-69
2020/12/24 06:58:46;;;;;;;0.87;0.87;;;;;;;2.77;87.39;99341.44;5110060;28;20660;-69
2020/12/24 07:01:16;;;;;;;1.10;1.00;;;;;;;2.62;87.12;99338.16;5103787;28;20471;-69
2020/12/24 07:03:42;;;;;;;1.00;1.00;;;;;;;2.40;87.38;99341.50;5118813;28;20450;-69
2020/12/24 07:06:10;;;;;;;1.30;1.20;;;;;;;2.46;87.43;99348.13;5097270;28;20471;-69
2020/12/24 07:08:46;;;;;;;1.20;1.10;;;;;;;2.49;87.89;99347.91;5115748;28;20480;-69
2020/12/24 07:11:42;;;;;;;1.37;1.27;;;;;;;2.60;87.58;99357.66;5113211;28;20469;-70
2020/12/24 07:14:25;;;;;;;1.33;1.23;;;;;;;2.59;86.84;99359.47;5102475;28;20507;-70
2020/12/24 07:16:52;;;;;;;3.10;1.30;;;;;;;2.48;87.46;99367.31;5078831;28;20526;-69
2020/12/24 07:19:18;;;;;;;1.80;1.37;;;;;;;2.54;87.68;99374.78;5119540;28;20476;-70
2020/12/24 07:21:49;;;;;;;1.30;1.20;;;;;;;2.66;87.42;99378.34;5113519;28;21024;-69
2020/12/24 07:24:16;;;;;;;1.87;1.77;;;;;;;2.59;86.71;99380.59;5102227;28;20447;-70
2020/12/24 07:26:43;;;;;;;1.63;1.53;;;;;;;2.55;86.92;99389.69;5103736;28;20471;-69
2020/12/24 07:29:13;;;;;;;1.73;1.63;;;;;;;2.40;86.57;99388.16;5104380;28;20944;-70
2020/12/24 07:31:39;;;;;;;1.80;1.70;;;;;;;2.43;87.26;99398.47;5102193;28;20553;-69
2020/12/24 07:34:05;;;;;;;1.60;1.50;;;;;;;2.42;87.13;99395.00;5118228;28;20984;-69
2020/12/24 07:36:31;;;;;;;1.80;1.70;;;;;;;2.34;87.54;99404.41;5121872;28;20481;-69
2020/12/24 07:38:58;;;;;;;2.50;2.30;;;;;;;2.38;87.37;99411.16;5122670;28;20456;-69
2020/12/24 07:41:24;;;;;;;2.30;1.90;;;;;;;2.45;87.26;99415.03;5114527;28;20485;-69
2020/12/24 07:43:50;;;;;;;2.17;1.97;;;;;;;2.46;87.45;99416.72;5104137;28;20451;-69
2020/12/24 07:46:21;;;;;;;2.40;2.00;;;;;;;2.41;86.95;99421.47;5102158;28;20510;-69
2020/12/24 07:48:48;;;;;;;2.47;2.07;;;;;;;2.34;87.05;99425.50;5104043;28;20431;-69
2020/12/24 07:51:14;;;;;;;2.30;2.10;;;;;;;2.33;87.62;99429.09;5113977;28;20503;-69
2020/12/24 07:53:40;;;;;;;2.70;2.50;;;;;;;2.45;87.64;99436.97;5123901;28;20927;-69
2020/12/24 07:56:09;;;;;;;2.83;2.60;;;;;;;2.44;87.50;99437.09;5116259;27;20478;-70
2020/12/24 07:58:36;;;;;;;2.37;2.17;;;;;;;2.42;87.75;99436.38;5127118;28;20909;-70
2020/12/24 08:01:03;;;;;;;1.93;1.83;;;;;;;2.43;87.77;99451.22;5118268;28;20471;-70
2020/12/24 08:03:30;;;;;;;2.97;2.77;;;;;;;2.50;87.63;99452.50;5106508;28;20474;-69
2020/12/24 08:06:02;;;;;;;2.80;2.60;;;;;;;2.51;87.55;99446.25;5105292;28;20463;-69
2020/12/24 08:08:31;;;;;;;3.20;2.80;;;;;;;2.61;87.68;99447.28;5104835;28;20471;-69
2020/12/24 08:10:58;;;;;;;3.30;2.97;;;;;;;2.83;86.87;99453.69;5105184;28;20466;-69
2020/12/24 08:13:25;;;;;;;3.17;2.87;;;;;;;2.62;87.00;99456.03;5105444;28;20438;-70
2020/12/24 08:15:52;;;;;;;2.67;2.47;;;;;;;2.64;87.64;99457.63;5104840;28;20466;-70
2020/12/24 08:18:22;;;;;;;3.50;3.10;;;;;;;2.68;88.00;99468.81;5106029;28;20454;-70
2020/12/24 08:20:52;;;;;;;2.70;2.50;;;;;;;2.80;87.50;99461.81;5104886;28;20474;-70
2020/12/24 08:23:23;;;;;;;4.13;2.70;;;;;;;2.76;87.22;99466.47;5105048;28;20454;-70
2020/12/24 08:25:52;;;;;;;3.33;3.03;;;;;;;2.56;88.21;99462.59;5104958;28;20471;-70
2020/12/24 08:28:18;;;;;;;3.50;3.20;;;;;;;2.72;88.19;99469.44;5106161;28;20478;-71
2020/12/24 08:30:46;;;;;;;3.13;2.70;;;;;;;2.82;87.67;99466.00;5104265;28;20475;-70
2020/12/24 08:33:13;;;;;;;5.20;3.67;;;;;;;2.90;87.42;99470.75;5106145;28;20455;-70
2020/12/24 08:35:39;;;;;;;4.00;3.60;;;;;;;2.97;88.07;99473.81;5104162;28;20506;-70
2020/12/24 08:38:13;;;;;;;4.40;3.57;;;;;;;3.07;88.10;99480.06;5101495;28;20504;-70
2020/12/24 08:40:39;;;;;;;4.30;3.90;;;;;;;3.01;88.88;99484.00;5104410;28;20470;-70
2020/12/24 08:43:06;;;;;;;3.50;3.00;;;;;;;3.01;88.58;99491.94;5105096;28;20497;-70
2020/12/24 08:45:33;;;;;;;3.77;3.47;;;;;;;3.09;88.47;99491.38;5103254;28;20469;-69
2020/12/24 08:48:00;;;;;;;4.43;4.03;;;;;;;3.14;88.47;99494.53;5098248;28;20473;-70
2020/12/24 08:50:31;;;;;;;4.40;3.80;;;;;;;3.25;87.80;99495.56;5101737;28;20474;-72
2020/12/24 08:52:57;;;;;;;5.13;3.50;;;;;;;3.39;86.60;99498.84;5098881;28;20835;-72
2020/12/24 08:55:27;;;;;;;4.67;4.10;;;;;;;3.52;86.90;99501.41;5101116;28;20467;-71
2020/12/24 08:57:53;;;;;;;5.10;4.60;;;;;;;3.48;86.73;99509.72;5098408;28;20454;-71
2020/12/24 09:00:19;;;;;;;5.47;4.87;;;;;;;3.66;86.35;99518.88;5100966;28;20444;-74
2020/12/24 09:02:46;;;;;;;4.30;3.80;;;;;;;3.70;86.25;99527.47;5098090;28;20489;-69
2020/12/24 09:05:14;;;;;;;8.37;4.80;;;;;;;3.74;86.16;99519.16;5101805;28;20519;-68
2020/12/24 09:07:42;;;;;;;6.00;5.00;;;;;;;3.87;85.71;99524.41;5101618;28;20442;-67
2020/12/24 09:10:10;;;;;;;6.00;5.23;;;;;;;3.92;86.11;99521.38;5108675;28;20482;-69
2020/12/24 09:12:37;;;;;;;5.80;5.30;;;;;;;4.03;85.77;99531.13;5102892;28;20458;-68
2020/12/24 09:15:07;;;;;;;7.20;5.50;;;;;;;3.95;85.58;99537.03;5102872;28;20506;-67
2020/12/24 09:17:33;;;;;;;5.60;4.97;;;;;;;3.80;86.01;99544.28;5101735;28;20463;-72
2020/12/24 09:20:08;;;;;;;5.30;4.80;;;;;;;3.86;86.12;99543.03;5104371;28;20472;-71
2020/12/24 09:22:35;;;;;;;5.17;4.67;;;;;;;4.01;85.90;99549.81;5100923;28;20477;-69
2020/12/24 09:25:02;;;;;;;8.87;5.27;;;;;;;4.16;85.77;99558.34;5104458;28;20432;-75
2020/12/24 09:27:28;;;;;;;6.87;5.63;;;;;;;4.20;85.78;99557.19;5103975;28;20519;-74
2020/12/24 09:29:54;;;;;;;5.93;5.10;;;;;;;4.08;85.78;99555.44;5123429;28;20803;-71
2020/12/24 09:32:20;;;;;;;5.30;4.73;;;;;;;4.03;84.78;99563.75;5107728;27;20578;-74
2020/12/24 09:34:46;;;;;;;5.13;4.63;;;;;;;4.26;84.81;99566.44;5102837;28;20502;-72
2020/12/24 09:37:13;;;;;;;8.40;5.07;;;;;;;4.39;83.77;99564.53;5099674;28;20513;-71
2020/12/24 09:39:40;;;;;;;6.00;5.03;;;;;;;4.36;83.50;99570.06;5099418;28;20439;-73
2020/12/24 09:42:06;;;;;;;5.47;4.40;;;;;;;4.53;83.62;99576.69;5103371;28;20477;-73
2020/12/24 09:44:32;;;;;;;7.30;5.10;;;;;;;4.59;82.88;99575.41;5102039;28;20439;-72
2020/12/24 09:46:58;;;;;;;5.43;4.93;;;;;;;4.66;83.12;99585.38;5101445;28;20488;-71
2020/12/24 09:49:24;;;;;;;4.93;4.27;;;;;;;4.83;83.08;99570.84;5112829;28;20434;-72
2020/12/24 09:51:51;;;;;;;4.90;4.13;;;;;;;4.66;82.80;99582.75;5089504;28;20485;-67
2020/12/24 09:54:17;;;;;;;5.87;4.17;;;;;;;4.58;83.12;99582.47;5099844;28;21041;-69
2020/12/24 09:56:44;;;;;;;5.43;4.30;;;;;;;4.52;83.38;99591.75;5096910;28;20840;-72
2020/12/24 09:59:10;;;;;;;4.00;3.60;;;;;;;4.67;84.03;99592.38;5101618;28;20439;-74
2020/12/24 10:01:36;;;;;;;5.33;4.60;;;;;;;4.83;83.06;99607.06;5099518;28;20474;-71
2020/12/24 10:04:03;;;;;;;4.93;3.93;;;;;;;4.82;83.18;99611.50;5102546;28;20461;-73
2020/12/24 10:06:30;;;;;;;5.03;4.53;;;;;;;4.81;83.42;99611.63;5099946;28;20565;-71
2020/12/24 10:08:56;;;;;;;4.27;3.77;;;;;;;4.83;82.53;99613.22;5110121;28;20474;-70
2020/12/24 10:11:22;;;;;;;3.97;3.50;;;;;;;4.82;82.87;99621.28;5121428;27;20470;-69
2020/12/24 10:13:49;;;;;;;4.43;4.03;;;;;;;5.03;83.13;99630.16;5121600;28;20536;-69
2020/12/24 10:16:16;;;;;;;4.53;3.53;;;;;;;4.93;82.30;99639.84;5121696;28;20478;-69
2020/12/24 10:18:42;;;;;;;3.50;3.20;;;;;;;4.90;82.90;99650.66;5125583;27;20942;-69
2020/12/24 10:21:10;;;;;;;6.57;3.97;;;;;;;4.59;83.36;99653.00;5121154;28;20472;-71
2020/12/24 10:23:36;;;;;;;3.50;3.20;;;;;;;4.74;83.23;99658.94;5123271;28;20599;-70
2020/12/24 10:26:02;;;;;;;4.00;3.33;;;;;;;4.42;84.03;99656.94;5121996;28;20526;-69
2020/12/24 10:28:28;;;;;;;3.37;3.07;;;;;;;4.43;84.38;99657.78;5133485;27;20455;-69
2020/12/24 10:30:55;;;;;;;3.77;3.00;;;;;;;4.69;83.79;99658.47;5126214;27;20470;-69
2020/12/24 10:33:21;;;;;;;4.80;3.30;;;;;;;4.70;83.52;99662.78;5123124;28;20461;-69
2020/12/24 10:35:48;;;;;;;3.30;3.00;;;;;;;4.81;83.08;99662.81;5122654;28;20474;-72
2020/12/24 10:38:14;;;;;;;3.20;2.90;;;;;;;4.72;83.45;99655.56;5122217;28;20461;-71
2020/12/24 10:40:40;;;;;;;3.80;3.40;;;;;;;4.73;83.08;99654.59;5122821;28;20473;-69
2020/12/24 10:43:06;;;;;;;3.40;2.60;;;;;;;4.72;83.33;99660.84;5126038;28;20511;-69
2020/12/24 10:45:32;;;;;;;3.70;3.17;;;;;;;4.68;83.70;99651.47;5122271;28;20462;-69
2020/12/24 10:48:00;;;;;;;3.80;3.50;;;;;;;4.83;82.89;99666.19;5122618;28;20454;-69
2020/12/24 10:50:26;;;;;;;3.87;3.17;;;;;;;4.84;83.60;99656.41;5122343;28;20838;-69
2020/12/24 10:52:52;;;;;;;3.83;3.43;;;;;;;4.72;83.75;99653.78;5122687;28;20445;-71
2020/12/24 10:55:18;;;;;;;5.57;3.00;;;;;;;4.59;84.84;99660.13;5122074;28;20496;-69
2020/12/24 10:57:46;;;;;;;4.40;3.70;;;;;;;4.52;84.87;99663.22;5112744;28;20481;-69
2020/12/24 11:00:12;;;;;;;3.40;2.90;;;;;;;4.37;85.12;99660.91;5122365;27;20445;-69
2020/12/24 11:02:38;;;;;;;4.50;3.50;;;;;;;4.42;84.96;99658.75;5127000;28;20442;-68
2020/12/24 11:05:05;;;;;;;5.40;3.50;;;;;;;4.48;85.51;99671.53;5124948;28;20479;-71
2020/12/24 11:07:31;;;;;;;4.63;3.83;;;;;;;4.84;84.25;99667.88;5126185;28;20476;-73
2020/12/24 11:09:58;;;;;;;6.03;3.33;;;;;;;4.74;84.75;99666.91;5112345;28;20503;-71
2020/12/24 11:12:25;;;;;;;3.83;3.43;;;;;;;4.68;83.68;99672.66;5100849;28;20475;-71
2020/12/24 11:14:51;;;;;;;3.47;3.10;;;;;;;4.77;84.19;99671.94;5100837;28;20491;-71
2020/12/24 11:17:17;;;;;;;5.17;3.33;;;;;;;4.89;83.25;99664.84;5104535;28;20485;-70
2020/12/24 11:19:44;;;;;;;4.73;3.53;;;;;;;4.75;82.21;99665.09;5105211;28;20435;-71
2020/12/24 11:22:11;;;;;;;3.20;2.87;;;;;;;4.71;83.74;99664.47;5104192;28;20496;-70
2020/12/24 11:24:37;;;;;;;5.50;3.40;;;;;;;4.72;84.36;99668.78;5105644;28;20962;-69
2020/12/24 11:27:03;;;;;;;3.67;3.37;;;;;;;4.66;83.84;99679.88;5103261;28;20474;-69
2020/12/24 11:29:30;;;;;;;3.83;3.07;;;;;;;4.66;83.16;99679.88;5106141;28;20438;-69
2020/12/24 11:31:58;;;;;;;3.90;3.13;;;;;;;4.64;82.44;99677.34;5105099;28;20502;-69
2020/12/24 11:34:26;;;;;;;3.53;3.23;;;;;;;4.66;83.33;99683.34;5106849;28;20487;-71
2020/12/24 11:36:52;;;;;;;4.97;4.43;;;;;;;4.74;83.52;99677.50;5105167;28;20477;-70
2020/12/24 11:39:19;;;;;;;11.27;7.50;;;;;;;4.56;84.31;99682.34;5105250;28;20462;-69
2020/12/24 11:41:45;;;;;;;4.40;4.00;;;;;;;4.81;84.16;99683.13;5105173;28;20482;-69